createdAt,value
2018-08-14T00:02:11.010Z,73.15
2018-08-14T00:04:40.514Z,74.12
2018-08-14T00:07:09.746Z,77.07
2018-08-14T00:09:40.160Z,74.47
2018-08-14T00:12:09.949Z,75.72
2018-08-14T00:14:40.317Z,74.55
2018-08-14T00:17:09.855Z,72.35
2018-08-14T00:19:39.398Z,73.43
2018-08-14T00:22:09.328Z,75.82
2018-08-14T00:24:40.365Z,70.80
2018-08-14T00:27:09.914Z,71.53
2018-08-14T00:29:39.440Z,73.07
2018-08-14T00:32:09.251Z,70.28
2018-08-14T00:34:39.159Z,69.82
2018-08-14T00:37:08.398Z,69.25
2018-08-14T00:39:37.893Z,66.93
2018-08-14T00:42:07.464Z,65.95
2018-08-14T00:44:37.688Z,63.35
2018-08-14T00:47:07.241Z,61.78
2018-08-14T00:49:36.778Z,62.42
2018-08-14T00:52:06.390Z,61.15
2018-08-14T00:54:35.892Z,58.42
2018-08-14T00:57:05.689Z,58.80
2018-08-14T00:59:35.664Z,58.65
2018-08-14T01:02:05.902Z,57.83
2018-08-14T01:04:35.569Z,56.10
2018-08-14T01:07:05.719Z,56.00
2018-08-14T01:09:35.050Z,55.72
2018-08-14T01:12:05.123Z,55.92
2018-08-14T01:14:35.262Z,57.10
2018-08-14T01:17:04.593Z,58.15
2018-08-14T01:19:34.631Z,57.55
2018-08-14T01:22:04.324Z,57.33
2018-08-14T01:24:33.979Z,56.97
2018-08-14T01:27:03.488Z,60.33
2018-08-14T01:29:33.152Z,64.87
2018-08-14T01:32:02.772Z,57.17
2018-08-14T01:34:32.290Z,59.28
2018-08-14T01:37:01.824Z,58.40
2018-08-14T01:39:31.621Z,56.28
2018-08-14T01:42:01.142Z,57.10
2018-08-14T01:44:30.785Z,57.85
2018-08-14T01:47:00.545Z,58.83
2018-08-14T01:49:29.970Z,57.78
2018-08-14T01:51:59.519Z,58.47
2018-08-14T01:54:29.216Z,56.00
2018-08-14T01:56:58.698Z,60.25
2018-08-14T01:59:28.174Z,69.00
2018-08-14T02:01:57.729Z,68.82
2018-08-14T02:04:28.673Z,71.25
2018-08-14T02:06:59.137Z,70.82
2018-08-14T02:09:28.668Z,64.40
2018-08-14T02:11:59.275Z,65.53
2018-08-14T02:14:29.429Z,63.13
2018-08-14T02:16:59.290Z,65.85
2018-08-14T02:19:28.957Z,67.55
2018-08-14T02:21:58.547Z,65.25
2018-08-14T02:24:27.863Z,65.45
2018-08-14T02:26:57.802Z,62.75
2018-08-14T02:29:28.428Z,62.50
2018-08-14T02:31:58.811Z,61.63
2018-08-14T02:34:28.239Z,62.55
2018-08-14T02:36:57.704Z,62.85
2018-08-14T02:39:27.318Z,63.58
2018-08-14T02:41:57.052Z,65.00
2018-08-14T02:44:26.509Z,64.30
2018-08-14T02:46:56.212Z,64.10
2018-08-14T02:49:25.803Z,65.47
2018-08-14T02:51:55.521Z,65.93
2018-08-14T02:54:25.919Z,65.07
2018-08-14T02:56:55.422Z,64.60
2018-08-14T02:59:24.977Z,64.65
2018-08-14T03:01:54.765Z,65.85
2018-08-14T03:04:24.250Z,67.28
2018-08-14T03:06:53.617Z,65.45
2018-08-14T03:09:22.935Z,65.62
2018-08-14T03:11:53.182Z,66.30
2018-08-14T03:14:23.638Z,65.50
2018-08-14T03:16:53.562Z,65.85
2018-08-14T03:19:22.854Z,66.07
2018-08-14T03:21:52.171Z,65.68
2018-08-14T03:24:21.754Z,64.40
2018-08-14T03:26:50.822Z,66.37
2018-08-14T03:29:21.109Z,66.75
2018-08-14T03:31:50.583Z,66.22
2018-08-14T03:34:20.161Z,65.80
2018-08-14T03:36:50.247Z,66.78
2018-08-14T03:39:20.066Z,65.95
2018-08-14T03:41:50.960Z,63.33
2018-08-14T03:44:20.438Z,64.62
2018-08-14T03:46:50.834Z,65.57
2018-08-14T03:49:20.365Z,65.12
2018-08-14T03:51:49.867Z,61.55
2018-08-14T03:54:20.070Z,65.60
2018-08-14T03:56:50.230Z,63.50
2018-08-14T03:59:21.210Z,65.18
2018-08-14T04:01:51.092Z,65.20
2018-08-14T04:04:20.832Z,65.35
2018-08-14T04:06:50.429Z,66.62
2018-08-14T04:09:20.298Z,68.47
2018-08-14T04:11:49.880Z,64.32
2018-08-14T04:14:19.787Z,65.82
2018-08-14T04:16:49.072Z,65.05
2018-08-14T04:19:18.388Z,65.93
2018-08-14T04:21:48.026Z,66.35
2018-08-14T04:24:17.445Z,65.30
2018-08-14T04:26:48.041Z,67.97
2018-08-14T04:29:18.905Z,66.80
2018-08-14T04:31:49.467Z,66.00
2018-08-14T04:34:18.905Z,67.82
2018-08-14T04:36:50.567Z,68.50
2018-08-14T04:39:20.149Z,67.10
2018-08-14T04:41:50.102Z,69.07
2018-08-14T04:44:20.692Z,70.85
2018-08-14T04:46:51.039Z,69.55
2018-08-14T04:49:21.184Z,70.25
2018-08-14T04:51:50.177Z,71.25
2018-08-14T04:54:19.757Z,70.62
2018-08-14T04:56:49.087Z,70.30
2018-08-14T04:59:19.070Z,71.78
2018-08-14T05:01:48.390Z,72.43
2018-08-14T05:04:17.968Z,73.40
2018-08-14T05:06:47.456Z,71.00
2018-08-14T05:09:17.031Z,69.28
2018-08-14T05:11:46.599Z,66.80
2018-08-14T05:14:16.929Z,66.12
2018-08-14T05:16:46.348Z,65.82
2018-08-14T05:19:15.928Z,66.47
2018-08-14T05:21:45.406Z,62.22
2018-08-14T05:24:14.938Z,60.83
2018-08-14T05:26:44.809Z,60.80
2018-08-14T05:29:14.122Z,62.30
2018-08-14T05:31:44.103Z,63.30
2018-08-14T05:34:13.689Z,59.08
2018-08-14T05:36:43.398Z,59.80
2018-08-14T05:39:14.048Z,61.03
2018-08-14T05:41:44.720Z,63.38
2018-08-14T05:44:14.200Z,63.05
2018-08-14T05:46:43.676Z,63.42
2018-08-14T05:49:13.450Z,63.42
2018-08-14T05:51:42.839Z,64.97
2018-08-14T05:54:12.378Z,64.32
2018-08-14T05:56:42.307Z,67.03
2018-08-14T05:59:12.072Z,65.57
2018-08-14T06:01:41.738Z,72.40
2018-08-14T06:04:12.968Z,72.30
2018-08-14T06:06:42.572Z,77.18
2018-08-14T06:09:12.834Z,74.00
2018-08-14T06:11:42.430Z,72.20
2018-08-14T06:14:11.650Z,74.15
2018-08-14T06:16:41.105Z,71.03
2018-08-14T06:19:11.523Z,70.75
2018-08-14T06:21:40.801Z,72.93
2018-08-14T06:24:10.221Z,76.30
2018-08-14T06:26:39.744Z,77.10
2018-08-14T06:29:09.445Z,79.60
2018-08-14T06:31:39.220Z,88.05
2018-08-14T06:34:08.822Z,91.53
2018-08-14T06:36:38.402Z,95.05
2018-08-14T06:39:07.890Z,100.07
2018-08-14T06:41:37.391Z,93.07
2018-08-14T06:44:06.999Z,88.62
2018-08-14T06:46:36.424Z,89.72
2018-08-14T06:49:06.224Z,88.30
2018-08-14T06:51:35.792Z,78.47
2018-08-14T06:54:05.190Z,81.10
2018-08-14T06:56:34.744Z,86.05
2018-08-14T06:59:04.262Z,89.00
2018-08-14T07:01:34.262Z,89.07
2018-08-14T07:04:04.942Z,100.55
2018-08-14T07:06:34.211Z,97.80
2018-08-14T07:09:03.727Z,98.10
2018-08-14T07:11:33.340Z,101.30
2018-08-14T07:14:03.091Z,103.43
2018-08-14T07:16:32.481Z,104.90
2018-08-14T07:19:02.786Z,104.05
2018-08-14T07:21:32.364Z,102.70
2018-08-14T07:24:01.821Z,106.45
2018-08-14T07:26:33.081Z,109.85
2018-08-14T07:29:02.731Z,106.37
2018-08-14T07:31:32.271Z,105.03
2018-08-14T07:34:01.498Z,103.10
2018-08-14T07:36:30.901Z,103.22
2018-08-14T07:39:00.388Z,107.30
2018-08-14T07:41:29.830Z,104.32
2018-08-14T07:43:59.314Z,101.60
2018-08-14T07:46:28.853Z,103.43
2018-08-14T07:48:59.071Z,102.00
2018-08-14T07:51:28.837Z,103.50
2018-08-14T07:53:58.411Z,104.20
2018-08-14T07:56:28.308Z,104.32
2018-08-14T07:58:57.860Z,104.75
2018-08-14T08:01:27.987Z,105.28
2018-08-14T08:03:57.536Z,105.70
2018-08-14T08:06:27.150Z,107.75
2018-08-14T08:08:56.621Z,103.90
2018-08-14T08:11:26.038Z,106.40
2018-08-14T08:13:56.663Z,106.63
2018-08-14T08:16:26.265Z,105.20
2018-08-14T08:18:55.985Z,104.00
2018-08-14T08:21:25.665Z,109.05
2018-08-14T08:23:54.999Z,106.85
2018-08-14T08:26:24.540Z,105.05
2018-08-14T08:28:54.168Z,107.75
2018-08-14T08:31:23.765Z,110.05
2018-08-14T08:33:53.460Z,114.20
2018-08-14T08:36:23.105Z,116.47
2018-08-14T08:38:52.973Z,112.62
2018-08-14T08:41:22.530Z,111.85
2018-08-14T08:43:52.465Z,112.00
2018-08-14T08:46:21.969Z,112.15
2018-08-14T08:48:52.600Z,109.53
2018-08-14T08:51:22.514Z,111.60
2018-08-14T08:53:52.317Z,116.12
2018-08-14T08:56:21.712Z,118.50
2018-08-14T08:58:51.052Z,113.53
2018-08-14T09:01:20.079Z,115.50
2018-08-14T09:03:49.415Z,117.57
2018-08-14T09:06:18.975Z,118.30
2018-08-14T09:08:48.770Z,117.50
2018-08-14T09:11:19.131Z,114.88
2018-08-14T09:13:55.739Z,113.15
2018-08-14T09:16:25.388Z,114.88
2018-08-14T09:18:54.784Z,110.20
2018-08-14T09:21:24.764Z,113.62
2018-08-14T09:23:54.077Z,109.65
2018-08-14T09:26:23.290Z,112.07
2018-08-14T09:28:53.564Z,113.62
2018-08-14T09:31:22.936Z,113.90
2018-08-14T09:33:52.155Z,111.85
2018-08-14T09:36:21.552Z,114.45
2018-08-14T09:38:51.220Z,116.32
2018-08-14T09:41:20.749Z,116.97
2018-08-14T09:43:50.100Z,117.53
2018-08-14T09:46:19.679Z,120.25
2018-08-14T09:48:50.024Z,120.70
2018-08-14T09:51:19.443Z,118.35
2018-08-14T09:53:48.771Z,120.40
2018-08-14T09:56:18.341Z,115.85
2018-08-14T09:58:47.743Z,117.80
2018-08-14T10:01:18.928Z,118.30
2018-08-14T10:03:48.702Z,122.85
2018-08-14T10:06:18.200Z,113.70
2018-08-14T10:08:50.269Z,115.88
2018-08-14T10:11:20.503Z,112.65
2018-08-14T10:13:50.039Z,110.30
2018-08-14T10:16:19.653Z,106.18
2018-08-14T10:18:49.347Z,112.97
2018-08-14T10:21:19.834Z,109.22
2018-08-14T10:23:49.940Z,108.43
2018-08-14T10:26:18.898Z,111.50
2018-08-14T10:28:48.125Z,108.45
2018-08-14T10:31:17.203Z,111.72
2018-08-14T10:33:47.888Z,112.93
2018-08-14T10:36:17.402Z,109.28
2018-08-14T10:38:47.006Z,106.93
2018-08-14T10:41:16.503Z,106.20
2018-08-14T10:43:46.729Z,103.50
2018-08-14T10:46:16.148Z,100.75
2018-08-14T10:48:46.210Z,100.20
2018-08-14T10:51:16.864Z,100.55
2018-08-14T10:53:46.644Z,100.38
2018-08-14T10:56:18.291Z,111.40
2018-08-14T10:58:47.873Z,107.00
2018-08-14T11:01:17.407Z,106.55
2018-08-14T11:03:47.093Z,106.35
2018-08-14T11:06:16.549Z,103.82
2018-08-14T11:08:46.121Z,105.90
2018-08-14T11:11:16.487Z,104.25
2018-08-14T11:13:46.089Z,101.97
2018-08-14T11:16:15.866Z,103.72
2018-08-14T11:18:45.483Z,101.05
2018-08-14T11:21:15.579Z,102.85
2018-08-14T11:23:45.204Z,102.57
2018-08-14T11:26:14.728Z,102.43
2018-08-14T11:28:44.413Z,104.72
2018-08-14T11:31:13.883Z,101.55
2018-08-14T11:33:43.549Z,100.68
2018-08-14T11:36:13.046Z,99.47
2018-08-14T11:38:43.443Z,97.20
2018-08-14T11:41:12.826Z,96.28
2018-08-14T11:43:42.739Z,95.97
2018-08-14T11:46:13.771Z,97.05
2018-08-14T11:48:43.245Z,98.53
2018-08-14T11:51:12.836Z,96.57
2018-08-14T11:53:44.231Z,98.37
2018-08-14T11:56:13.717Z,100.07
2018-08-14T11:58:43.036Z,101.20
2018-08-14T12:01:12.296Z,101.32
2018-08-14T12:03:41.875Z,99.55
2018-08-14T12:06:11.377Z,100.68
2018-08-14T12:08:40.715Z,101.22
2018-08-14T12:11:10.279Z,98.57
2018-08-14T12:13:39.615Z,100.87
2018-08-14T12:16:09.821Z,98.65
2018-08-14T12:18:40.076Z,98.50
2018-08-14T12:21:10.760Z,100.60
2018-08-14T12:23:40.007Z,98.80
2018-08-14T12:26:09.612Z,101.10
2018-08-14T12:28:39.162Z,98.80
2018-08-14T12:31:08.559Z,99.32
2018-08-14T12:33:38.781Z,98.72
2018-08-14T12:36:09.291Z,96.68
2018-08-14T12:38:40.219Z,97.28
2018-08-14T12:41:10.702Z,95.12
2018-08-14T12:43:40.443Z,97.15
2018-08-14T12:46:09.680Z,97.00
2018-08-14T12:48:38.971Z,98.95
2018-08-14T12:51:08.457Z,101.55
2018-08-14T12:53:37.781Z,101.00
2018-08-14T12:56:07.410Z,100.60
2018-08-14T12:58:36.974Z,98.00
2018-08-14T13:01:06.289Z,99.95
2018-08-14T13:03:35.500Z,95.07
2018-08-14T13:06:05.005Z,98.05
2018-08-14T13:08:34.496Z,100.00
2018-08-14T13:11:04.328Z,95.43
2018-08-14T13:13:35.500Z,96.57
2018-08-14T13:16:04.845Z,98.87
2018-08-14T13:18:34.173Z,100.00
2018-08-14T13:21:03.774Z,98.53
2018-08-14T13:23:34.709Z,98.80
2018-08-14T13:26:06.445Z,100.72
2018-08-14T13:28:36.266Z,97.53
2018-08-14T13:31:05.584Z,97.00
2018-08-14T13:33:34.920Z,95.30
2018-08-14T13:36:04.631Z,98.93
2018-08-14T13:38:33.980Z,96.55
2018-08-14T13:41:03.407Z,97.88
2018-08-14T13:43:32.988Z,96.97
2018-08-14T13:46:02.557Z,98.60
2018-08-14T13:48:31.955Z,98.50
2018-08-14T13:51:01.501Z,100.50
2018-08-14T13:53:31.136Z,99.35
2018-08-14T13:56:01.731Z,93.25
2018-08-14T13:58:31.355Z,93.43
2018-08-14T14:01:01.343Z,95.97
2018-08-14T14:03:33.723Z,94.97
2018-08-14T14:06:02.844Z,98.82
2018-08-14T14:08:36.007Z,95.75
2018-08-14T14:11:06.208Z,98.07
2018-08-14T14:13:37.032Z,97.47
2018-08-14T14:16:06.241Z,97.53
2018-08-14T14:18:35.780Z,97.50
2018-08-14T14:21:05.525Z,96.00
2018-08-14T14:23:35.159Z,99.78
2018-08-14T14:26:04.440Z,97.25
2018-08-14T14:28:34.285Z,97.03
2018-08-14T14:31:04.445Z,100.72
2018-08-14T14:33:34.954Z,97.80
2018-08-14T14:36:04.885Z,98.80
2018-08-14T14:38:34.200Z,99.65
2018-08-14T14:41:04.711Z,98.43
2018-08-14T14:43:34.484Z,99.40
2018-08-14T14:46:04.196Z,102.30
2018-08-14T14:48:34.718Z,102.53
2018-08-14T14:51:03.894Z,102.62
2018-08-14T14:53:33.214Z,102.38
2018-08-14T14:56:03.019Z,101.60
2018-08-14T14:58:33.929Z,101.12
2018-08-14T15:01:03.313Z,99.68
2018-08-14T15:03:34.682Z,96.87
2018-08-14T15:06:04.292Z,97.97
2018-08-14T15:08:33.767Z,102.95
2018-08-14T15:11:03.458Z,103.85
2018-08-14T15:13:32.999Z,103.95
2018-08-14T15:16:02.635Z,104.03
2018-08-14T15:18:32.361Z,102.40
2018-08-14T15:21:01.703Z,101.22
2018-08-14T15:23:31.072Z,102.07
2018-08-14T15:26:00.583Z,103.57
2018-08-14T15:31:36.226Z,116.27
2018-08-14T15:34:05.831Z,106.30
2018-08-14T15:36:35.286Z,105.22
2018-08-14T15:39:05.921Z,107.45
2018-08-14T15:41:35.257Z,108.15
2018-08-14T15:44:05.369Z,109.00
2018-08-14T15:46:34.771Z,110.75
2018-08-14T15:49:04.528Z,106.82
2018-08-14T15:51:34.037Z,108.75
2018-08-14T15:54:03.837Z,105.97
2018-08-14T15:56:34.059Z,107.60
2018-08-14T15:59:04.094Z,111.80
2018-08-14T16:01:33.511Z,109.18
2018-08-14T16:04:02.956Z,112.68
2018-08-14T16:06:32.501Z,114.00
2018-08-14T16:09:01.850Z,114.10
2018-08-14T16:11:31.396Z,113.40
2018-08-14T16:14:01.104Z,109.70
2018-08-14T16:16:30.809Z,113.10
2018-08-14T16:19:00.407Z,108.05
2018-08-14T16:21:30.110Z,112.37
2018-08-14T16:23:59.719Z,112.45
2018-08-14T16:26:29.182Z,111.25
2018-08-14T16:28:58.832Z,112.50
2018-08-14T16:31:28.268Z,113.25
2018-08-14T16:33:57.689Z,111.18
2018-08-14T16:36:27.227Z,111.37
2018-08-14T16:38:56.540Z,107.95
2018-08-14T16:41:25.449Z,106.93
2018-08-14T16:43:55.592Z,107.55
2018-08-14T16:46:25.915Z,104.25
2018-08-14T16:48:55.870Z,109.50
2018-08-14T16:51:25.643Z,105.28
2018-08-14T16:53:55.075Z,110.32
2018-08-14T16:56:25.515Z,107.35
2018-08-14T16:58:55.808Z,110.47
2018-08-14T17:01:25.598Z,107.53
2018-08-14T17:03:54.887Z,107.63
2018-08-14T17:06:25.495Z,109.70
2018-08-14T17:08:55.752Z,107.20
2018-08-14T17:11:25.157Z,111.28
2018-08-14T17:13:55.666Z,106.05
2018-08-14T17:16:25.917Z,110.22
2018-08-14T17:18:56.298Z,110.12
2018-08-14T17:21:24.804Z,109.80
2018-08-14T17:23:54.347Z,111.35
2018-08-14T17:26:23.391Z,111.60
2018-08-14T17:28:52.611Z,109.07
2018-08-14T17:31:22.788Z,105.55
2018-08-14T17:33:52.085Z,105.70
2018-08-14T17:36:21.600Z,110.82
2018-08-14T17:38:51.343Z,107.25
2018-08-14T17:41:20.959Z,104.65
2018-08-14T17:43:50.267Z,106.28
2018-08-14T17:46:20.272Z,107.30
2018-08-14T17:48:49.882Z,105.05
2018-08-14T17:51:19.426Z,107.20
2018-08-14T17:53:49.316Z,105.35
2018-08-14T17:56:18.620Z,105.45
2018-08-14T17:58:48.064Z,108.43
2018-08-14T18:01:17.672Z,103.65
2018-08-14T18:03:47.036Z,105.95
2018-08-14T18:06:19.074Z,105.68
2018-08-14T18:08:48.358Z,106.87
2018-08-14T18:11:18.001Z,106.78
2018-08-14T18:13:47.572Z,104.75
2018-08-14T18:16:17.026Z,107.80
2018-08-14T18:18:46.581Z,102.28
2018-08-14T18:21:15.957Z,102.80
2018-08-14T18:23:45.263Z,102.30
2018-08-14T18:26:14.603Z,101.25
2018-08-14T18:28:44.187Z,101.60
2018-08-14T18:31:13.423Z,102.75
2018-08-14T18:33:43.089Z,100.50
2018-08-14T18:36:12.512Z,98.78
2018-08-14T18:38:42.008Z,100.35
2018-08-14T18:41:11.843Z,99.65
2018-08-14T18:43:41.681Z,94.13
2018-08-14T18:46:13.116Z,96.50
2018-08-14T18:48:42.556Z,99.45
2018-08-14T18:51:12.546Z,99.82
2018-08-14T18:53:42.076Z,96.50
2018-08-14T18:56:11.752Z,96.25
2018-08-14T18:58:42.864Z,95.68
2018-08-14T19:01:12.443Z,91.57
2018-08-14T19:03:41.892Z,94.80
2018-08-14T19:06:11.281Z,94.45
2018-08-14T19:08:41.695Z,96.65
2018-08-14T19:11:11.279Z,95.90
2018-08-14T19:13:40.823Z,97.65
2018-08-14T19:16:10.354Z,101.05
2018-08-14T19:18:39.831Z,105.22
2018-08-14T19:21:11.371Z,102.10
2018-08-14T19:23:40.664Z,100.22
2018-08-14T19:26:10.120Z,100.62
2018-08-14T19:28:39.680Z,103.00
2018-08-14T19:31:08.960Z,104.47
2018-08-14T19:33:38.287Z,106.70
2018-08-14T19:36:07.968Z,103.43
2018-08-14T19:38:37.602Z,105.95
2018-08-14T19:41:07.935Z,105.43
2018-08-14T19:43:37.671Z,105.78
2018-08-14T19:46:07.333Z,106.07
2018-08-14T19:48:37.589Z,103.72
2018-08-14T19:51:08.080Z,107.07
2018-08-14T19:53:37.740Z,104.65
2018-08-14T19:56:08.076Z,108.05
2018-08-14T19:58:38.312Z,105.30
2018-08-14T20:01:07.890Z,106.47
2018-08-14T20:03:37.186Z,106.40
2018-08-14T20:06:07.489Z,103.93
2018-08-14T20:08:37.616Z,107.28
2018-08-14T20:11:06.806Z,111.28
2018-08-14T20:13:36.640Z,109.37
2018-08-14T20:16:06.415Z,110.20
2018-08-14T20:18:35.916Z,111.53
2018-08-14T20:21:05.378Z,109.68
2018-08-14T20:23:35.157Z,111.95
2018-08-14T20:26:04.713Z,113.12
2018-08-14T20:28:34.746Z,110.47
2018-08-14T20:31:06.212Z,107.60
2018-08-14T20:33:35.719Z,107.35
2018-08-14T20:36:05.256Z,110.32
2018-08-14T20:38:36.130Z,105.37
2018-08-14T20:41:07.536Z,103.93
2018-08-14T20:43:37.409Z,111.32
2018-08-14T20:46:07.382Z,109.22
2018-08-14T20:48:37.092Z,105.07
2018-08-14T20:51:06.759Z,104.32
2018-08-14T20:53:36.139Z,106.93
2018-08-14T20:56:05.752Z,105.03
2018-08-14T20:58:35.360Z,107.95
2018-08-14T21:01:05.023Z,103.65
2018-08-14T21:03:37.514Z,104.38
2018-08-14T21:06:09.401Z,105.05
2018-08-14T21:08:38.918Z,99.45
2018-08-14T21:11:08.378Z,100.10
2018-08-14T21:13:38.149Z,102.10
2018-08-14T21:16:08.628Z,102.30
2018-08-14T21:18:38.949Z,96.72
2018-08-14T21:21:08.575Z,96.20
2018-08-14T21:23:38.187Z,93.68
2018-08-14T21:26:07.859Z,96.63
2018-08-14T21:28:37.267Z,96.05
2018-08-14T21:31:06.749Z,98.57
2018-08-14T21:33:36.312Z,99.95
2018-08-14T21:36:07.123Z,99.05
2018-08-14T21:38:37.057Z,94.87
2018-08-14T21:41:06.612Z,93.47
2018-08-14T21:43:35.934Z,94.93
2018-08-14T21:46:06.231Z,91.43
2018-08-14T21:48:35.718Z,94.90
2018-08-14T21:51:05.015Z,95.25
2018-08-14T21:53:35.300Z,92.00
2018-08-14T21:56:04.612Z,90.97
2018-08-14T21:58:34.505Z,88.43
2018-08-14T22:01:04.508Z,88.57
2018-08-14T22:03:34.683Z,85.97
2018-08-14T22:06:04.294Z,86.30
2018-08-14T22:08:33.590Z,86.47
2018-08-14T22:11:03.224Z,85.28
2018-08-14T22:13:32.709Z,83.50
2018-08-14T22:16:02.493Z,83.40
2018-08-14T22:18:32.487Z,85.40
2018-08-14T22:21:02.227Z,84.05
2018-08-14T22:23:31.880Z,84.85
2018-08-14T22:26:01.482Z,85.30
2018-08-14T22:28:31.051Z,83.05
2018-08-14T22:31:00.925Z,87.07
2018-08-14T22:33:30.223Z,85.70
2018-08-14T22:36:00.557Z,87.18
2018-08-14T22:38:30.431Z,87.43
2018-08-14T22:40:59.830Z,90.62
2018-08-14T22:43:29.372Z,86.12
2018-08-14T22:45:58.839Z,90.07
2018-08-14T22:48:29.527Z,91.37
2018-08-14T22:50:59.044Z,89.75
2018-08-14T22:53:28.645Z,89.70
2018-08-14T22:55:58.183Z,90.65
2018-08-14T22:58:27.605Z,90.60
2018-08-14T23:00:56.839Z,92.57
2018-08-14T23:03:26.514Z,89.15
2018-08-14T23:05:56.086Z,87.28
2018-08-14T23:08:25.585Z,94.55
2018-08-14T23:10:55.197Z,90.40
2018-08-14T23:13:24.420Z,93.30
2018-08-14T23:15:54.302Z,90.43
2018-08-14T23:18:24.170Z,96.45
2018-08-14T23:20:53.842Z,96.57
2018-08-14T23:23:23.325Z,95.28
2018-08-14T23:25:52.859Z,94.10
2018-08-14T23:28:23.551Z,93.97
2018-08-14T23:30:53.267Z,92.97
2018-08-14T23:33:22.720Z,89.68
2018-08-14T23:35:51.889Z,91.57
2018-08-14T23:38:22.003Z,95.20
2018-08-14T23:40:51.793Z,92.78
2018-08-14T23:43:21.149Z,95.00
2018-08-14T23:45:50.784Z,95.45
2018-08-14T23:48:21.699Z,92.70
2018-08-14T23:50:51.182Z,92.90
2018-08-14T23:53:22.634Z,95.30
2018-08-14T23:55:51.983Z,95.43
2018-08-14T23:58:22.475Z,95.10
